FORUM FRENCH AIR FORCE / FAF

Le forum des passionnés de simulation militaire
 
AccueilFAQRechercherS'enregistrerConnexion

Partagez | 
 

 Premier vol de l'année 2013

Voir le sujet précédent Voir le sujet suivant Aller en bas 
AuteurMessage
afuchs67
Chef de patrouille
avatar

Nombre de messages : 42
Age : 44
Résidence : Bas-Rhin - Alsace
INDICATIF FAF/FMF : FAF067
Date d'inscription : 05/06/2006

MessageSujet: Premier vol de l'année 2013   Mar 1 Jan - 15:12

***********************************************************************************************
1ier janvier 2013 - MISSION de PERMANENCE OPERATIONNELLE - IVAO
***********************************************************************************************

0930Z - LFMO Orange Caritat
METAR : LFMO 010830Z AUTO 13006KT 9999 FEW034/// BKN042/// OVC074/// //////TCU 09/05 Q1015
Ce n'est pas ce que l'on pourrait appeler des conditions idéales, les photos confirment le METAR :

Il pleut, le Tarmac est détrempé :


Les TCU sont bien là mais la visi est bonne :


Au HP RWY14, le soleil perce péniblement la couche :


Cap au Nord-Est, les Alpes se dessinent au loin :


La Vallée du Rhône est toute blanche :


Mon objectif est dans les 12h - FL320 :


Identification de l'appareil, c'est bien un EasyJet :



Début de descente vers Roissy ... à travers les couches :



Puis on perce, enfin ... avant l'interception ILS :


Etabli ILS, je lui confirme la sortie de son train d'atterrissage ... "Bon atterrissage EZY2SH" :


Pour ma part, je vais me poser à Creil.
LFPC 011000Z AUTO 28010KT 9999 FEW022 SCT062 BKN076 08/05 Q1008

Alexis FAF067 / Coordo
Revenir en haut Aller en bas
afuchs67
Chef de patrouille
avatar

Nombre de messages : 42
Age : 44
Résidence : Bas-Rhin - Alsace
INDICATIF FAF/FMF : FAF067
Date d'inscription : 05/06/2006

MessageSujet: Re: Premier vol de l'année 2013   Mar 1 Jan - 15:17

afuchs67 a écrit:
***********************************************************************************************
1ier janvier 2013 - MISSION de PERMANENCE OPERATIONNELLE - IVAO
***********************************************************************************************

0930Z - LFMO Orange Caritat
METAR : LFMO 010830Z AUTO 13006KT 9999 FEW034/// BKN042/// OVC074/// //////TCU 09/05 Q1015
Ce n'est pas ce que l'on pourrait appeler des conditions idéales, les photos confirment le METAR :

Il pleut, le Tarmac est détrempé :


Les TCU sont bien là mais la visi est bonne :


Au HP RWY14, le soleil perce péniblement la couche :


Cap au Nord-Est, les Alpes se dessinent au loin :


La Vallée du Rhône est toute blanche :


Mon objectif est dans les 12h - FL320 :


Identification de l'appareil, c'est bien un EasyJet :



Début de descente vers Roissy ... à travers les couches :



Puis on perce, enfin ... avant l'interception ILS :


Etabli ILS, je lui confirme la sortie de son train d'atterrissage ... "Bon atterrissage EZY2SH" :


Pour ma part, je vais me poser à Creil.
LFPC 011000Z AUTO 28010KT 9999 FEW022 SCT062 BKN076 08/05 Q1008

Longue vie à la FAF, longue vie à IVAO-FR et longue vie à IVAO.
Très bonne année 2013 de la part de la FAF à tous les pilotes et contrôleurs IVAO.

Alexis FAF067 / Coordo
Revenir en haut Aller en bas
Philoo/FAF020
Admin
avatar

Nombre de messages : 426
Age : 60
Résidence : Beauvais (Oise)
INDICATIF FAF/FMF : 020
Date d'inscription : 08/11/2005

MessageSujet: Re: Premier vol de l'année 2013   Mar 1 Jan - 20:39

Hello Alexis

récit très sympa, immersion totale, bravo !

Philoo 020
Revenir en haut Aller en bas
http://www.fafzone.fr
faf010
Admin
avatar

Nombre de messages : 499
Age : 37
INDICATIF FAF/FMF : FAF010
Date d'inscription : 17/11/2005

MessageSujet: Re: Premier vol de l'année 2013   Mer 2 Jan - 7:53

Salut

Ca c'est super !!

Faut vraiment qu'on relance cela !!

Alex

_________________
Revenir en haut Aller en bas
kevin/FAF054
Commandant de bord
avatar

Nombre de messages : 58
Age : 39
INDICATIF FAF/FMF : FMF054
Date d'inscription : 04/10/2009

MessageSujet: Re: Premier vol de l'année 2013   Mer 2 Jan - 15:29

Hyper sympa Wink Je vois que la PO FAF veille!
Revenir en haut Aller en bas
Contenu sponsorisé




MessageSujet: Re: Premier vol de l'année 2013   

Revenir en haut Aller en bas
 
Premier vol de l'année 2013
Voir le sujet précédent Voir le sujet suivant Revenir en haut 
Page 1 sur 1
 Sujets similaires
-
» Bravo à vous les membres du forumHaiti , bonne et heureuse année 2013
» BAL DE FIN D'ANNÉE 2013 ? terminé
» JOYEUX NOËL et BONNE ANNÉE 2013
» Bonne année 2013
» 1, 2, 3....

Permission de ce forum:Vous ne pouvez pas répondre aux sujets dans ce forum
FORUM FRENCH AIR FORCE / FAF :: Général :: Partage de screens et photos-
Sauter vers: